createdAt,value
2023-02-04T00:02:59.710Z,1.13
2023-02-04T00:06:02.387Z,1.40
2023-02-04T00:09:04.791Z,1.33
2023-02-04T00:12:07.420Z,1.13
2023-02-04T00:15:10.827Z,1.25
2023-02-04T00:18:13.245Z,1.38
2023-02-04T00:21:15.858Z,1.17
2023-02-04T00:24:18.242Z,1.25
2023-02-04T00:27:20.612Z,1.77
2023-02-04T00:30:23.221Z,1.60
2023-02-04T00:33:25.671Z,1.20
2023-02-04T00:36:28.511Z,1.10
2023-02-04T00:39:31.033Z,1.17
2023-02-04T00:42:34.263Z,1.73
2023-02-04T00:45:36.901Z,1.50
2023-02-04T00:48:39.414Z,1.15
2023-02-04T00:51:46.428Z,1.67
2023-02-04T00:54:49.006Z,1.13
2023-02-04T00:57:51.599Z,1.40
2023-02-04T01:00:54.348Z,1.20
2023-02-04T01:03:57.850Z,1.50
2023-02-04T01:07:00.256Z,1.00
2023-02-04T01:10:04.019Z,1.77
2023-02-04T01:13:08.457Z,1.40
2023-02-04T01:16:11.019Z,1.25
2023-02-04T01:19:13.527Z,0.82
2023-02-04T01:22:16.022Z,1.30
2023-02-04T01:25:18.769Z,1.30
2023-02-04T01:28:21.169Z,1.55
2023-02-04T01:31:23.619Z,1.40
2023-02-04T01:34:26.156Z,1.70
2023-02-04T01:37:28.572Z,1.30
2023-02-04T01:40:32.927Z,1.20
2023-02-04T01:43:35.615Z,1.40
2023-02-04T01:46:38.077Z,1.40
2023-02-04T01:49:40.714Z,1.40
2023-02-04T01:52:44.984Z,1.08
2023-02-04T01:55:48.150Z,1.40
2023-02-04T01:58:50.934Z,1.58
2023-02-04T02:01:54.427Z,1.10
2023-02-04T02:04:57.013Z,1.10
2023-02-04T02:08:03.385Z,1.02
2023-02-04T02:11:06.374Z,1.30
2023-02-04T02:14:08.899Z,1.48
2023-02-04T02:17:11.300Z,1.03
2023-02-04T02:20:17.917Z,1.30
2023-02-04T02:23:45.334Z,1.30
2023-02-04T02:26:47.876Z,0.77
2023-02-04T02:29:51.138Z,1.23
2023-02-04T02:32:54.340Z,1.10
2023-02-04T02:35:56.962Z,1.60
2023-02-04T02:39:01.146Z,0.90
2023-02-04T02:42:03.983Z,1.25
2023-02-04T02:45:16.443Z,1.10
2023-02-04T02:48:19.277Z,1.13
2023-02-04T02:51:22.372Z,0.85
2023-02-04T02:54:28.487Z,0.90
2023-02-04T02:57:33.022Z,0.88
2023-02-04T03:00:35.480Z,1.20
2023-02-04T03:03:51.844Z,0.83
2023-02-04T03:06:56.163Z,1.02
2023-02-04T03:10:00.145Z,0.85
2023-02-04T03:13:03.780Z,0.50
2023-02-04T03:16:08.360Z,0.90
2023-02-04T03:19:12.360Z,0.83
2023-02-04T03:22:15.837Z,0.57
2023-02-04T03:25:18.529Z,1.00
2023-02-04T03:28:21.121Z,0.73
2023-02-04T03:31:23.772Z,0.73
2023-02-04T03:34:26.396Z,0.80
2023-02-04T03:37:28.839Z,0.80
2023-02-04T03:40:31.595Z,0.60
2023-02-04T03:43:34.305Z,0.90
2023-02-04T03:46:36.692Z,0.63
2023-02-04T03:49:39.494Z,0.73
2023-02-04T03:52:41.976Z,0.80
2023-02-04T03:55:44.447Z,0.82
2023-02-04T03:58:47.021Z,0.77
2023-02-04T04:01:49.656Z,0.73
2023-02-04T04:04:52.512Z,1.17
2023-02-04T04:07:55.408Z,1.02
2023-02-04T04:10:57.905Z,0.93
2023-02-04T04:14:01.874Z,0.80
2023-02-04T04:17:04.329Z,1.05
2023-02-04T04:20:07.330Z,1.08
2023-02-04T04:23:10.045Z,1.00
2023-02-04T04:26:12.509Z,1.10
2023-02-04T04:29:15.190Z,0.80
2023-02-04T04:32:18.327Z,0.77
2023-02-04T04:35:20.763Z,0.77
2023-02-04T04:38:23.193Z,0.55
2023-02-04T04:41:25.707Z,0.70
2023-02-04T04:44:28.245Z,0.95
2023-02-04T04:47:30.752Z,0.93
2023-02-04T04:50:33.525Z,0.52
2023-02-04T04:53:36.407Z,0.40
2023-02-04T04:56:38.875Z,0.70
2023-02-04T04:59:41.305Z,0.70
2023-02-04T05:02:43.859Z,0.90
2023-02-04T05:05:46.250Z,0.80
2023-02-04T05:08:49.118Z,0.67
2023-02-04T05:11:51.790Z,0.50
2023-02-04T05:14:54.224Z,0.52
2023-02-04T05:17:58.352Z,0.50
2023-02-04T05:21:01.185Z,0.70
2023-02-04T05:24:03.883Z,0.73
2023-02-04T05:27:06.380Z,0.50
2023-02-04T05:30:11.486Z,0.60
2023-02-04T05:33:14.300Z,0.50
2023-02-04T05:36:17.918Z,0.30
2023-02-04T05:39:20.412Z,0.40
2023-02-04T05:42:23.607Z,0.30
2023-02-04T05:45:26.125Z,0.47
2023-02-04T05:48:28.743Z,0.50
2023-02-04T05:51:31.135Z,0.57
2023-02-04T05:54:33.735Z,0.40
2023-02-04T05:57:36.241Z,0.40
2023-02-04T06:00:39.148Z,0.80
2023-02-04T06:03:41.740Z,0.20
2023-02-04T06:06:44.490Z,0.32
2023-02-04T06:09:47.308Z,0.10
2023-02-04T06:12:49.801Z,0.32
2023-02-04T06:15:52.467Z,0.10
2023-02-04T06:18:55.341Z,0.20
2023-02-04T06:21:57.747Z,0.30
2023-02-04T06:25:00.228Z,0.20
2023-02-04T06:28:02.740Z,0.30
2023-02-04T06:31:05.739Z,0.30
2023-02-04T06:34:08.327Z,0.30
2023-02-04T06:37:11.234Z,0.20
2023-02-04T06:40:13.686Z,0.20
2023-02-04T06:43:16.505Z,0.30
2023-02-04T06:46:19.052Z,0.30
2023-02-04T06:49:21.583Z,0.30
2023-02-04T06:52:23.949Z,0.43
2023-02-04T06:55:26.635Z,0.30
2023-02-04T06:58:29.141Z,0.50
2023-02-04T07:01:31.838Z,0.65
2023-02-04T07:04:35.441Z,0.63
2023-02-04T07:07:38.189Z,0.47
2023-02-04T07:10:40.650Z,0.50
2023-02-04T07:13:43.174Z,0.70
2023-02-04T07:16:46.209Z,0.50
2023-02-04T07:19:48.839Z,1.77
2023-02-04T07:22:51.613Z,0.85
2023-02-04T07:25:56.418Z,1.20
2023-02-04T07:28:58.813Z,0.70
2023-02-04T07:32:01.404Z,1.00
2023-02-04T07:35:04.364Z,1.15
2023-02-04T07:38:07.104Z,1.65
2023-02-04T07:41:09.652Z,0.83
2023-02-04T07:44:12.350Z,1.33
2023-02-04T07:47:14.973Z,0.98
2023-02-04T07:50:18.029Z,1.60
2023-02-04T07:53:20.553Z,1.43
2023-02-04T07:56:23.396Z,1.92
2023-02-04T07:59:25.867Z,1.70
2023-02-04T08:02:28.400Z,1.92
2023-02-04T08:05:30.915Z,1.90
2023-02-04T08:08:33.706Z,1.63
2023-02-04T08:11:36.171Z,2.00
2023-02-04T08:14:38.579Z,2.10
2023-02-04T08:17:41.043Z,2.23
2023-02-04T08:20:43.661Z,1.63
2023-02-04T08:23:46.243Z,1.60
2023-02-04T08:26:49.736Z,2.17
2023-02-04T08:29:53.030Z,1.97
2023-02-04T08:32:55.462Z,1.98
2023-02-04T08:35:57.906Z,1.98
2023-02-04T08:39:00.585Z,1.88
2023-02-04T08:42:03.297Z,2.07
2023-02-04T08:45:05.987Z,2.20
2023-02-04T08:48:09.666Z,1.90
2023-02-04T08:51:12.272Z,1.55
2023-02-04T08:54:14.764Z,1.80
2023-02-04T08:57:17.211Z,1.40
2023-02-04T09:00:20.477Z,1.45
2023-02-04T09:03:23.137Z,2.30
2023-02-04T09:06:25.646Z,1.53
2023-02-04T09:09:28.087Z,1.55
2023-02-04T09:12:30.698Z,1.30
2023-02-04T09:15:33.197Z,1.50
2023-02-04T09:18:35.821Z,1.37
2023-02-04T09:21:38.929Z,1.00
2023-02-04T09:24:41.962Z,0.90
2023-02-04T09:27:44.574Z,0.80
2023-02-04T09:30:47.597Z,1.08
2023-02-04T09:33:50.712Z,0.93
2023-02-04T09:36:53.208Z,1.00
2023-02-04T09:39:55.754Z,1.50
2023-02-04T09:42:59.459Z,0.80
2023-02-04T09:46:03.055Z,1.00
2023-02-04T09:49:05.787Z,0.80
2023-02-04T09:52:14.096Z,0.80
2023-02-04T09:55:19.534Z,0.70
2023-02-04T09:58:23.662Z,0.88
2023-02-04T10:01:28.296Z,0.60
2023-02-04T10:04:31.004Z,0.70
2023-02-04T10:07:33.487Z,0.77
2023-02-04T10:10:36.258Z,0.77
2023-02-04T10:13:44.068Z,1.05
2023-02-04T10:16:54.357Z,0.80
2023-02-04T10:19:57.001Z,0.90
2023-02-04T10:22:59.662Z,0.65
2023-02-04T10:26:03.988Z,0.90
2023-02-04T10:29:12.796Z,0.85
2023-02-04T10:32:34.203Z,0.83
2023-02-04T10:35:45.510Z,1.17
2023-02-04T10:39:00.350Z,2.08
2023-02-04T10:42:02.851Z,2.22
2023-02-04T10:45:05.563Z,1.10
2023-02-04T10:48:16.146Z,1.60
2023-02-04T10:51:18.598Z,1.30
2023-02-04T10:54:31.713Z,1.00
2023-02-04T10:57:39.376Z,0.80
2023-02-04T11:00:42.524Z,0.90
2023-02-04T11:03:48.003Z,1.00
2023-02-04T11:06:52.912Z,1.00
2023-02-04T11:09:55.685Z,1.50
2023-02-04T11:12:58.078Z,2.45
2023-02-04T11:16:18.701Z,0.77
2023-02-04T11:19:38.940Z,1.50
2023-02-04T11:22:49.505Z,1.00
2023-02-04T11:26:17.182Z,1.20
2023-02-04T11:29:31.211Z,1.10
2023-02-04T11:32:38.079Z,1.17
2023-02-04T11:36:01.001Z,0.90
2023-02-04T11:39:17.108Z,1.15
2023-02-04T11:42:27.777Z,1.20
2023-02-04T11:45:34.218Z,1.30
2023-02-04T11:48:43.979Z,1.20
2023-02-04T11:51:46.791Z,0.70
2023-02-04T11:54:59.748Z,0.90
2023-02-04T11:58:02.314Z,1.00
2023-02-04T12:01:04.834Z,1.10
2023-02-04T12:04:21.268Z,0.85
2023-02-04T12:07:26.551Z,0.77
2023-02-04T12:10:34.146Z,0.73
2023-02-04T12:13:50.491Z,1.35
2023-02-04T12:16:53.436Z,1.00
2023-02-04T12:19:56.292Z,1.20
2023-02-04T12:22:58.866Z,1.53
2023-02-04T12:26:01.407Z,1.00
2023-02-04T12:29:05.680Z,0.98
2023-02-04T12:32:08.170Z,0.95
2023-02-04T12:35:10.786Z,1.10
2023-02-04T12:38:13.424Z,1.00
2023-02-04T12:41:16.003Z,1.20
2023-02-04T12:44:18.476Z,1.35
2023-02-04T12:47:20.982Z,1.20
2023-02-04T12:50:23.663Z,1.27
2023-02-04T12:53:26.568Z,1.00
2023-02-04T12:56:32.067Z,1.33
2023-02-04T12:59:34.578Z,1.40
2023-02-04T13:02:37.135Z,1.20
2023-02-04T13:05:39.782Z,1.02
2023-02-04T13:08:42.309Z,1.20
2023-02-04T13:11:45.574Z,1.30
2023-02-04T13:14:48.286Z,1.00
2023-02-04T13:17:50.821Z,1.00
2023-02-04T13:20:53.211Z,1.50
2023-02-04T13:23:57.558Z,1.03
2023-02-04T13:27:00.139Z,1.40
2023-02-04T13:30:03.217Z,1.52
2023-02-04T13:33:06.392Z,1.60
2023-02-04T13:36:10.161Z,1.20
2023-02-04T13:39:12.672Z,1.03
2023-02-04T13:42:15.232Z,1.40
2023-02-04T13:45:19.140Z,1.40
2023-02-04T13:48:21.739Z,1.83
2023-02-04T13:51:24.391Z,1.92
2023-02-04T13:54:26.904Z,1.07
2023-02-04T13:57:30.981Z,1.65
2023-02-04T14:00:34.091Z,1.30
2023-02-04T14:03:37.134Z,1.70
2023-02-04T14:06:43.641Z,1.58
2023-02-04T14:09:48.371Z,1.43
2023-02-04T14:12:52.251Z,1.75
2023-02-04T14:15:54.924Z,2.10
2023-02-04T14:18:57.430Z,1.67
2023-02-04T14:21:59.911Z,2.30
2023-02-04T14:25:04.122Z,1.87
2023-02-04T14:28:07.094Z,1.73
2023-02-04T14:31:09.705Z,1.90
2023-02-04T14:34:12.225Z,2.05
2023-02-04T14:37:14.865Z,2.00
2023-02-04T14:40:18.907Z,1.90
2023-02-04T14:43:21.650Z,1.70
2023-02-04T14:46:24.438Z,1.90
2023-02-04T14:49:27.176Z,1.88
2023-02-04T14:52:29.746Z,2.60
2023-02-04T14:55:32.238Z,3.20
2023-02-04T14:58:34.903Z,2.85
2023-02-04T15:01:38.037Z,4.20
2023-02-04T15:04:40.746Z,1.80
2023-02-04T15:07:43.455Z,1.90
2023-02-04T15:10:46.642Z,2.10
2023-02-04T15:13:49.327Z,1.52
2023-02-04T15:16:51.851Z,1.40
2023-02-04T15:19:54.454Z,2.03
2023-02-04T15:22:59.078Z,1.40
2023-02-04T15:26:03.223Z,1.37
2023-02-04T15:29:06.214Z,1.52
2023-02-04T15:32:09.884Z,1.65
2023-02-04T15:35:13.632Z,1.40
2023-02-04T15:38:16.125Z,1.17
2023-02-04T15:41:18.558Z,1.65
2023-02-04T15:44:21.640Z,1.40
2023-02-04T15:47:24.024Z,1.10
2023-02-04T15:50:26.447Z,1.30
2023-02-04T15:53:28.981Z,1.25
2023-02-04T15:56:31.549Z,1.38
2023-02-04T15:59:34.292Z,1.60
2023-02-04T16:02:36.959Z,1.50
2023-02-04T16:05:39.444Z,1.70
2023-02-04T16:08:42.109Z,1.30
2023-02-04T16:11:44.799Z,1.10
2023-02-04T16:14:47.283Z,1.70
2023-02-04T16:17:49.896Z,1.85
2023-02-04T16:20:54.196Z,1.23
2023-02-04T16:23:56.763Z,1.57
2023-02-04T16:26:59.201Z,1.10
2023-02-04T16:30:02.245Z,1.20
2023-02-04T16:33:05.456Z,1.15
2023-02-04T16:36:12.067Z,1.17
2023-02-04T16:39:14.678Z,1.00
2023-02-04T16:42:17.309Z,1.10
2023-02-04T16:45:19.883Z,0.73
2023-02-04T16:48:22.981Z,1.03
2023-02-04T16:51:25.918Z,1.30
2023-02-04T16:54:28.475Z,1.27
2023-02-04T16:57:31.064Z,1.33
2023-02-04T17:00:34.565Z,1.27
2023-02-04T17:03:37.152Z,1.50
2023-02-04T17:06:39.957Z,1.55
2023-02-04T17:09:43.836Z,1.42
2023-02-04T17:12:46.812Z,1.33
2023-02-04T17:15:49.512Z,1.30
2023-02-04T17:18:52.198Z,1.25
2023-02-04T17:21:54.683Z,1.70
2023-02-04T17:24:57.154Z,1.57
2023-02-04T17:27:59.691Z,1.20
2023-02-04T17:31:02.312Z,1.10
2023-02-04T17:34:06.378Z,1.27
2023-02-04T17:37:09.077Z,1.17
2023-02-04T17:40:15.273Z,1.73
2023-02-04T17:43:17.797Z,1.30
2023-02-04T17:46:20.855Z,1.77
2023-02-04T17:49:23.571Z,1.27
2023-02-04T17:52:26.735Z,1.85
2023-02-04T17:55:31.244Z,1.40
2023-02-04T17:58:36.327Z,1.30
2023-02-04T18:01:42.661Z,1.45
2023-02-04T18:04:45.623Z,1.60
2023-02-04T18:08:01.533Z,1.48
2023-02-04T18:11:16.029Z,1.33
2023-02-04T18:14:27.464Z,1.50
2023-02-04T18:17:30.864Z,1.58
2023-02-04T18:20:34.341Z,1.58
2023-02-04T18:23:37.624Z,1.80
2023-02-04T18:26:48.244Z,1.88
2023-02-04T18:29:55.444Z,2.15
2023-02-04T18:32:59.308Z,1.60
2023-02-04T18:36:02.228Z,1.60
2023-02-04T18:39:18.856Z,2.15
2023-02-04T18:42:27.302Z,2.00
2023-02-04T18:45:32.471Z,2.15
2023-02-04T18:49:13.019Z,1.40
2023-02-04T18:52:19.627Z,2.35
2023-02-04T18:55:26.783Z,1.65
2023-02-04T18:58:34.424Z,3.13
2023-02-04T19:01:39.134Z,2.58
2023-02-04T19:04:41.684Z,1.35
2023-02-04T19:07:44.388Z,1.00
2023-02-04T19:10:48.312Z,2.42
2023-02-04T19:13:54.718Z,1.80
2023-02-04T19:17:28.258Z,1.60
2023-02-04T19:20:31.364Z,1.17
2023-02-04T19:23:37.831Z,1.40
2023-02-04T19:26:47.244Z,1.15
2023-02-04T19:29:49.928Z,1.37
2023-02-04T19:32:55.877Z,1.50
2023-02-04T19:36:11.347Z,1.30
2023-02-04T19:39:41.533Z,1.20
2023-02-04T19:42:45.140Z,1.00
2023-02-04T19:45:51.350Z,0.80
2023-02-04T19:48:53.979Z,1.08
2023-02-04T19:51:58.999Z,1.27
2023-02-04T19:55:26.053Z,1.42
2023-02-04T19:58:36.679Z,1.55
2023-02-04T20:01:39.441Z,1.60
2023-02-04T20:04:45.533Z,2.27
2023-02-04T20:07:48.033Z,2.63
2023-02-04T20:10:50.687Z,2.25
2023-02-04T20:13:56.932Z,2.03
2023-02-04T20:17:03.380Z,1.60
2023-02-04T20:20:22.540Z,1.27
2023-02-04T20:23:29.794Z,1.17
2023-02-04T20:26:32.902Z,1.10
2023-02-04T20:29:35.404Z,1.45
2023-02-04T20:32:41.136Z,1.40
2023-02-04T20:35:52.557Z,1.50
2023-02-04T20:39:11.402Z,1.50
2023-02-04T20:42:22.727Z,1.55
2023-02-04T20:45:32.827Z,1.65
2023-02-04T20:48:38.095Z,1.30
2023-02-04T20:51:40.657Z,1.75
2023-02-04T20:54:43.111Z,1.60
2023-02-04T20:57:46.078Z,1.30
2023-02-04T21:00:53.899Z,1.70
2023-02-04T21:03:58.031Z,1.25
2023-02-04T21:07:06.435Z,1.23
2023-02-04T21:10:09.103Z,1.45
2023-02-04T21:13:11.980Z,1.40
2023-02-04T21:16:14.656Z,1.65
2023-02-04T21:19:17.521Z,1.50
2023-02-04T21:22:20.464Z,1.50
2023-02-04T21:25:23.102Z,1.35
2023-02-04T21:28:27.727Z,1.15
2023-02-04T21:31:30.524Z,1.30
2023-02-04T21:34:33.004Z,1.60
2023-02-04T21:37:35.634Z,1.27
2023-02-04T21:40:38.500Z,1.42
2023-02-04T21:43:40.998Z,1.50
2023-02-04T21:46:43.632Z,1.33
2023-02-04T21:49:46.324Z,1.13
2023-02-04T21:52:49.607Z,1.53
2023-02-04T21:55:52.114Z,1.60
2023-02-04T21:58:54.884Z,1.40
2023-02-04T22:01:57.384Z,1.37
2023-02-04T22:05:00.249Z,1.25
2023-02-04T22:08:02.624Z,1.65
2023-02-04T22:11:05.277Z,1.40
2023-02-04T22:14:08.200Z,1.05
2023-02-04T22:17:10.782Z,1.17
2023-02-04T22:20:17.296Z,1.33
2023-02-04T22:23:20.006Z,1.53
2023-02-04T22:26:22.495Z,1.20
2023-02-04T22:29:28.790Z,1.10
2023-02-04T22:32:31.590Z,1.10
2023-02-04T22:35:36.809Z,1.20
2023-02-04T22:38:39.502Z,1.13
2023-02-04T22:41:41.924Z,1.50
2023-02-04T22:44:44.378Z,1.10
2023-02-04T22:47:46.853Z,1.15
2023-02-04T22:50:49.483Z,1.20
2023-02-04T22:53:51.926Z,1.10
2023-02-04T22:56:54.587Z,1.20
2023-02-04T22:59:57.172Z,1.20
2023-02-04T23:02:59.697Z,1.30
2023-02-04T23:06:02.357Z,1.20
2023-02-04T23:09:04.887Z,1.42
2023-02-04T23:12:14.183Z,1.10
2023-02-04T23:15:16.733Z,1.42
2023-02-04T23:18:19.250Z,1.20
2023-02-04T23:21:23.051Z,1.80
2023-02-04T23:24:26.015Z,1.23
2023-02-04T23:27:28.545Z,1.40
2023-02-04T23:30:31.055Z,1.38
2023-02-04T23:33:33.538Z,1.40
2023-02-04T23:36:36.634Z,1.10
2023-02-04T23:39:39.167Z,1.10
2023-02-04T23:42:41.906Z,1.50
2023-02-04T23:45:46.013Z,1.17
2023-02-04T23:48:48.416Z,1.73
2023-02-04T23:51:51.088Z,1.50
2023-02-04T23:54:53.626Z,1.30
2023-02-04T23:57:56.512Z,1.40
